Time;durP1;ratioP1;P1;durP2;ratioP2;P2;SDS_P1;SDS_P2;PMS_P1;PMS_P2;Temp;Humidity;BMP_temperature;BMP_pressure;BME280_temperature;BME280_humidity;BME280_pressure;Samples;Min_cycle;Max_cycle;Signal;HPM_P1;HPM_P2
2022/09/20 00:00:12;;;;;;;2.40;1.10;;;;;;;12.09;75.10;99247.53;5075351;28;41571;-81
2022/09/20 00:02:40;;;;;;;2.23;1.30;;;;;;;12.34;75.04;99279.59;5058540;28;42996;-80
2022/09/20 00:05:08;;;;;;;1.50;1.20;;;;;;;12.32;74.96;99284.13;5075321;28;39966;-80
2022/09/20 00:07:38;;;;;;;3.70;1.20;;;;;;;12.32;74.84;99283.28;5093582;28;41709;-80
2022/09/20 00:10:06;;;;;;;3.00;1.33;;;;;;;12.33;75.38;99280.53;5058197;28;44401;-81
2022/09/20 00:12:34;;;;;;;4.00;1.20;;;;;;;12.23;75.35;99272.28;5092930;28;43167;-80
2022/09/20 00:15:02;;;;;;;1.97;1.10;;;;;;;12.20;75.30;99272.47;5075543;28;39900;-80
2022/09/20 00:17:29;;;;;;;1.87;1.00;;;;;;;12.30;75.13;99285.16;5075396;28;40160;-80
2022/09/20 00:19:57;;;;;;;1.83;0.97;;;;;;;12.20;75.30;99276.94;5075354;28;42559;-80
2022/09/20 00:22:26;;;;;;;1.97;1.10;;;;;;;12.23;75.08;99284.72;5093059;28;42038;-80
2022/09/20 00:24:55;;;;;;;1.33;1.00;;;;;;;12.17;75.06;99285.09;5058712;28;38901;-80
2022/09/20 00:27:23;;;;;;;1.20;0.90;;;;;;;12.16;75.18;99283.38;5058324;28;40341;-81
2022/09/20 00:29:52;;;;;;;2.97;1.03;;;;;;;12.14;75.64;99286.13;5058303;28;41742;-80
2022/09/20 00:32:19;;;;;;;1.20;1.00;;;;;;;12.13;75.61;99295.03;5092942;28;42590;-81
2022/09/20 00:37:32;;;;;;;1.17;1.00;;;;;;;12.07;75.77;99294.56;5074997;28;41758;-80
2022/09/20 00:40:02;;;;;;;3.90;1.30;;;;;;;12.04;75.91;99294.75;5075397;28;43472;-80
2022/09/20 00:42:31;;;;;;;1.40;1.00;;;;;;;12.03;75.76;99293.03;5058156;28;41994;-80
2022/09/20 00:45:00;;;;;;;1.33;0.90;;;;;;;12.02;76.36;99296.63;5092821;28;40385;-80
2022/09/20 00:47:34;;;;;;;2.73;1.70;;;;;;;12.02;75.85;99301.94;5074810;28;42634;-80
2022/09/20 00:50:08;;;;;;;3.60;1.80;;;;;;;12.04;75.96;99300.06;5089769;28;42973;-80
2022/09/20 00:52:37;;;;;;;2.70;1.10;;;;;;;11.95;75.64;99274.09;5058356;28;41517;-79
2022/09/20 00:55:09;;;;;;;4.47;1.27;;;;;;;12.08;76.08;99296.28;5074837;28;39875;-80
2022/09/20 00:57:38;;;;;;;3.13;0.87;;;;;;;12.08;75.87;99298.94;5074897;28;40339;-81
2022/09/20 01:00:08;;;;;;;3.67;1.27;;;;;;;12.09;75.87;99295.34;5069685;28;43000;-83
2022/09/20 01:02:40;;;;;;;2.30;1.20;;;;;;;12.08;75.78;99293.63;5090260;28;43016;-80
2022/09/20 01:05:10;;;;;;;1.80;1.30;;;;;;;12.05;75.65;99292.00;5057719;28;39898;-81
2022/09/20 01:07:38;;;;;;;0.97;0.93;;;;;;;12.05;75.89;99288.50;5090956;28;40665;-80
2022/09/20 01:10:09;;;;;;;2.07;0.93;;;;;;;12.06;75.97;99287.56;5085791;28;42835;-82
2022/09/20 01:12:39;;;;;;;2.40;1.67;;;;;;;12.07;75.84;99297.22;5072709;28;42018;-79
2022/09/20 01:15:09;;;;;;;1.60;1.10;;;;;;;12.06;75.73;99298.16;5057151;28;38350;-80
2022/09/20 01:17:41;;;;;;;2.63;0.97;;;;;;;12.07;75.53;99299.88;5091041;28;40734;-80
2022/09/20 01:20:14;;;;;;;1.53;1.10;;;;;;;12.07;75.86;99303.38;5088671;28;42725;-81
2022/09/20 01:22:53;;;;;;;3.03;0.90;;;;;;;12.08;75.52;99301.59;5046737;28;41421;-80
2022/09/20 01:25:42;;;;;;;4.50;1.13;;;;;;;12.07;75.47;99298.06;5065162;28;40889;-80
2022/09/20 01:28:11;;;;;;;5.30;1.70;;;;;;;12.09;75.30;99303.28;5092321;28;42719;-80
2022/09/20 01:30:44;;;;;;;1.93;1.00;;;;;;;12.10;75.59;99297.03;5057476;28;42853;-81
2022/09/20 01:33:19;;;;;;;1.97;0.93;;;;;;;12.13;75.36;99299.47;5088270;28;43265;-81
2022/09/20 01:35:50;;;;;;;1.30;1.00;;;;;;;12.12;75.21;99303.09;5073988;28;39940;-80
2022/09/20 01:38:32;;;;;;;3.00;1.20;;;;;;;12.13;75.68;99299.47;5074384;28;40872;-80
2022/09/20 01:41:09;;;;;;;3.53;0.90;;;;;;;12.00;75.40;99277.28;5073961;28;44218;-80
2022/09/20 01:43:46;;;;;;;1.37;0.80;;;;;;;12.14;75.56;99301.19;5089024;28;43160;-80
2022/09/20 01:46:26;;;;;;;2.40;1.00;;;;;;;12.09;75.41;99290.03;5074268;28;39982;-80
2022/09/20 01:48:59;;;;;;;1.23;0.97;;;;;;;12.14;75.53;99301.19;5074256;28;43369;-81
2022/09/20 01:51:52;;;;;;;2.57;1.10;;;;;;;12.14;75.31;99295.88;5073634;28;43223;-80
2022/09/20 01:54:49;;;;;;;3.60;1.23;;;;;;;12.00;75.74;99282.59;5073585;28;44287;-80
2022/09/20 01:57:37;;;;;;;2.73;1.13;;;;;;;12.02;75.74;99291.34;5077245;28;38802;-81
2022/09/20 02:00:13;;;;;;;2.93;0.87;;;;;;;12.01;75.51;99300.22;5092189;28;41817;-80
2022/09/20 02:03:19;;;;;;;2.70;1.10;;;;;;;11.96;75.58;99303.19;5092410;28;42764;-80
2022/09/20 02:06:29;;;;;;;3.50;1.13;;;;;;;11.92;75.72;99306.13;5077318;28;42577;-80
2022/09/20 02:09:18;;;;;;;2.20;1.10;;;;;;;11.85;75.72;99309.16;5046631;28;39883;-80
2022/09/20 02:11:59;;;;;;;1.43;1.10;;;;;;;11.70;75.84;99293.25;5093330;28;41774;-80
2022/09/20 02:14:35;;;;;;;2.33;1.47;;;;;;;11.69;76.31;99305.69;5092149;28;43881;-80
2022/09/20 02:17:12;;;;;;;1.63;1.20;;;;;;;11.61;76.01;99307.09;5094925;28;42287;-80
2022/09/20 02:20:07;;;;;;;2.13;1.23;;;;;;;11.53;76.54;99302.22;5077186;28;38534;-80
2022/09/20 02:23:07;;;;;;;4.47;1.30;;;;;;;11.46;76.71;99301.75;5091922;28;42525;-81
2022/09/20 02:25:55;;;;;;;1.77;0.97;;;;;;;11.45;76.60;99299.19;5076749;28;43241;-81
2022/09/20 02:28:37;;;;;;;2.73;1.23;;;;;;;11.36;76.47;99297.94;5091879;28;42318;-81
2022/09/20 02:31:13;;;;;;;2.50;1.20;;;;;;;11.35;76.67;99306.81;5060041;28;39013;-80
2022/09/20 02:34:00;;;;;;;1.37;1.07;;;;;;;11.21;76.79;99296.16;5074710;28;42257;-81
2022/09/20 02:36:40;;;;;;;1.50;0.90;;;;;;;11.26;76.71;99317.09;5059416;28;43402;-80
2022/09/20 02:39:13;;;;;;;1.67;0.90;;;;;;;11.21;76.48;99316.53;5059577;28;41732;-80
2022/09/20 02:42:00;;;;;;;2.43;0.83;;;;;;;10.85;76.59;99269.97;5076685;28;38862;-80
2022/09/20 02:44:39;;;;;;;2.20;1.10;;;;;;;11.05;76.42;99309.44;5076513;28;40542;-80
2022/09/20 02:47:12;;;;;;;3.00;0.80;;;;;;;10.89;76.52;99298.00;5076740;28;41409;-80
2022/09/20 02:49:55;;;;;;;0.90;0.80;;;;;;;10.90;76.86;99310.31;5076900;28;41393;-79
2022/09/20 02:52:32;;;;;;;2.20;0.90;;;;;;;10.82;76.62;99301.94;5076584;28;39199;-81
2022/09/20 02:55:07;;;;;;;1.23;0.87;;;;;;;10.77;76.84;99303.97;5076400;28;40358;-80
2022/09/20 02:57:45;;;;;;;2.50;0.97;;;;;;;10.67;76.98;99302.78;5091550;28;42710;-80
2022/09/20 03:00:18;;;;;;;4.13;1.03;;;;;;;10.65;77.31;99299.38;5091207;28;43193;-81
2022/09/20 03:02:59;;;;;;;2.97;1.20;;;;;;;10.61;76.99;99304.00;5059419;28;40594;-80
2022/09/20 03:05:37;;;;;;;1.50;1.00;;;;;;;10.57;77.68;99306.91;5091529;28;41739;-80
2022/09/20 03:08:19;;;;;;;2.03;1.30;;;;;;;10.53;77.91;99305.34;5090180;28;43827;-80
2022/09/20 03:10:54;;;;;;;1.20;1.10;;;;;;;10.50;77.71;99301.09;5076437;28;41171;-80
2022/09/20 03:13:37;;;;;;;2.93;1.33;;;;;;;10.48;77.97;99300.31;5090325;28;39941;-80
2022/09/20 03:16:13;;;;;;;1.70;1.03;;;;;;;10.43;78.43;99300.56;5076288;28;40934;-80
2022/09/20 03:18:52;;;;;;;2.87;1.20;;;;;;;10.43;78.36;99311.16;5076086;28;43279;-80
2022/09/20 03:21:36;;;;;;;2.77;1.03;;;;;;;10.41;78.43;99312.16;5076091;28;42583;-80
2022/09/20 03:24:14;;;;;;;3.83;1.53;;;;;;;10.26;78.09;99300.63;5076298;28;39065;-80
2022/09/20 03:26:53;;;;;;;3.10;1.80;;;;;;;10.33;78.23;99320.53;5075415;28;42001;-80
2022/09/20 03:29:35;;;;;;;1.30;1.00;;;;;;;10.21;78.38;99304.47;5089859;28;43851;-80
2022/09/20 03:32:21;;;;;;;2.67;1.30;;;;;;;10.26;78.86;99315.69;5075572;28;42343;-80
2022/09/20 03:35:01;;;;;;;3.23;1.27;;;;;;;10.27;78.81;99320.84;5072898;28;40887;-80
2022/09/20 03:37:45;;;;;;;2.30;1.10;;;;;;;10.26;78.67;99327.09;5092389;28;44141;-80
2022/09/20 03:40:44;;;;;;;2.63;1.40;;;;;;;10.15;78.63;99302.97;5089700;28;43747;-80
2022/09/20 03:43:26;;;;;;;5.27;1.97;;;;;;;10.25;78.73;99321.91;5076347;28;41257;-80
2022/09/20 03:46:05;;;;;;;2.97;1.60;;;;;;;10.22;78.84;99317.63;5092104;28;40613;-80
2022/09/20 03:48:56;;;;;;;1.83;1.30;;;;;;;10.19;78.91;99320.44;5090782;28;42639;-79
2022/09/20 03:51:29;;;;;;;2.63;1.43;;;;;;;10.16;79.18;99325.84;5058695;28;43036;-80
2022/09/20 03:54:42;;;;;;;3.30;1.63;;;;;;;10.12;79.22;99329.59;5089340;28;43161;-80
2022/09/20 03:57:35;;;;;;;2.37;1.50;;;;;;;10.08;79.09;99325.41;5092608;28;40155;-80
2022/09/20 04:00:22;;;;;;;2.00;1.43;;;;;;;10.04;79.14;99334.44;5072804;28;41939;-80
2022/09/20 04:03:17;;;;;;;2.53;1.50;;;;;;;9.99;78.75;99324.09;5059096;28;42662;-80
2022/09/20 04:05:58;;;;;;;5.90;2.10;;;;;;;9.96;78.71;99331.34;5068102;28;42199;-80
2022/09/20 04:08:48;;;;;;;2.70;1.63;;;;;;;9.93;79.11;99326.22;5090392;28;40216;-80
2022/09/20 04:11:29;;;;;;;4.73;1.63;;;;;;;9.90;79.17;99331.66;5075192;28;41131;-80
2022/09/20 04:14:04;;;;;;;3.17;1.60;;;;;;;9.86;78.73;99336.25;5090376;28;42963;-80
2022/09/20 04:16:39;;;;;;;1.80;1.40;;;;;;;9.85;79.00;99336.34;5091056;28;42937;-80
2022/09/20 04:19:15;;;;;;;2.63;1.67;;;;;;;9.75;78.94;99327.19;5089999;28;41010;-80
2022/09/20 04:21:51;;;;;;;3.17;1.50;;;;;;;9.78;78.91;99332.28;5092258;28;41973;-80
2022/09/20 04:24:25;;;;;;;2.57;1.73;;;;;;;9.72;79.04;99329.03;5089083;28;42831;-80
2022/09/20 04:26:59;;;;;;;2.33;1.93;;;;;;;9.58;78.92;99312.16;5092428;28;42435;-80
2022/09/20 04:29:36;;;;;;;4.20;1.70;;;;;;;9.57;78.95;99319.25;5075571;28;40331;-80
2022/09/20 04:32:15;;;;;;;3.20;1.77;;;;;;;9.54;79.29;99311.47;5074788;28;42543;-80
2022/09/20 04:37:38;;;;;;;4.90;2.20;;;;;;;9.65;80.16;99327.63;5074478;28;41189;-80
2022/09/20 04:40:20;;;;;;;3.83;1.87;;;;;;;9.59;80.30;99316.53;5074762;28;39834;-80
2022/09/20 04:43:24;;;;;;;5.67;2.30;;;;;;;9.73;80.58;99336.03;5058706;28;40793;-79
2022/09/20 04:46:41;;;;;;;3.10;1.83;;;;;;;9.84;80.91;99337.28;5074983;28;41723;-80
2022/09/20 04:50:11;;;;;;;2.10;1.90;;;;;;;9.90;80.88;99329.00;5062193;28;42001;-78
2022/09/20 04:53:17;;;;;;;3.17;1.80;;;;;;;10.00;80.22;99332.91;5074912;28;38933;-79
2022/09/20 04:55:55;;;;;;;4.07;1.90;;;;;;;10.08;80.52;99341.28;5074651;28;40669;-80
2022/09/20 04:58:41;;;;;;;4.10;2.20;;;;;;;10.17;80.04;99340.78;5057709;28;43366;-79
2022/09/20 05:02:02;;;;;;;3.97;2.47;;;;;;;10.29;80.23;99349.91;5090853;28;43184;-79
2022/09/20 05:05:15;;;;;;;3.80;2.13;;;;;;;10.27;80.13;99336.75;5092293;28;40672;-80
2022/09/20 05:08:19;;;;;;;2.20;1.93;;;;;;;10.47;80.16;99358.66;5074602;28;41789;-80
2022/09/20 05:11:26;;;;;;;3.73;1.90;;;;;;;10.55;79.82;99356.44;5092242;28;42717;-80
2022/09/20 05:14:12;;;;;;;2.47;2.07;;;;;;;10.60;79.39;99360.56;5073867;28;41105;-80
2022/09/20 05:16:59;;;;;;;6.17;2.37;;;;;;;10.65;79.71;99360.28;5090568;28;40766;-80
2022/09/20 05:19:32;;;;;;;3.03;2.00;;;;;;;10.63;79.37;99354.25;5074547;28;42709;-80
2022/09/20 05:22:16;;;;;;;2.67;1.73;;;;;;;10.67;79.32;99350.47;5090753;28;42992;-80
2022/09/20 05:25:00;;;;;;;5.20;3.03;;;;;;;10.83;79.18;99369.88;5089145;28;43009;-79
2022/09/20 05:27:41;;;;;;;3.70;1.87;;;;;;;10.87;79.32;99376.75;5091121;28;40085;-80
2022/09/20 05:30:21;;;;;;;2.83;2.00;;;;;;;10.83;78.95;99358.44;5071374;28;41790;-80
2022/09/20 05:33:01;;;;;;;3.10;2.00;;;;;;;10.84;79.03;99363.66;5078070;28;41931;-80
2022/09/20 05:35:33;;;;;;;3.57;1.90;;;;;;;10.79;78.87;99345.34;5092440;28;42982;-80
2022/09/20 05:38:11;;;;;;;4.63;2.20;;;;;;;10.96;78.95;99368.28;5095616;28;40838;-79
2022/09/20 05:40:58;;;;;;;4.63;2.17;;;;;;;11.09;78.59;99374.59;5077300;28;43411;-80
2022/09/20 05:43:32;;;;;;;3.90;1.80;;;;;;;11.13;78.75;99386.72;5074431;28;42769;-80
2022/09/20 05:46:16;;;;;;;6.73;3.03;;;;;;;11.08;78.39;99362.28;5077103;28;42397;-79
2022/09/20 05:48:57;;;;;;;5.20;2.20;;;;;;;11.26;78.35;99386.03;5091201;28;40056;-79
2022/09/20 05:51:35;;;;;;;3.47;1.73;;;;;;;11.35;78.39;99390.81;5092807;28;41907;-80
2022/09/20 05:54:28;;;;;;;3.97;1.83;;;;;;;11.46;77.94;99393.72;5060605;28;41801;-80
2022/09/20 05:57:07;;;;;;;2.93;1.50;;;;;;;11.43;77.76;99375.31;5077216;28;41550;-79
2022/09/20 05:59:50;;;;;;;5.43;2.30;;;;;;;11.65;77.79;99389.03;5074100;28;39789;-79
2022/09/20 06:02:47;;;;;;;5.23;2.30;;;;;;;11.76;77.70;99391.09;5077294;28;41013;-80
2022/09/20 06:05:18;;;;;;;5.30;2.20;;;;;;;11.81;76.96;99384.59;5060225;28;41688;-79
2022/09/20 06:08:27;;;;;;;4.87;1.93;;;;;;;11.84;76.93;99394.16;5077123;28;41170;-80
2022/09/20 06:11:17;;;;;;;4.93;2.30;;;;;;;11.83;77.14;99387.16;5060166;28;38843;-79
2022/09/20 06:14:04;;;;;;;3.43;1.93;;;;;;;11.82;77.05;99396.06;5077263;28;40725;-79
2022/09/20 06:16:43;;;;;;;4.10;2.20;;;;;;;11.80;76.74;99396.13;5060004;28;41678;-80
2022/09/20 06:19:26;;;;;;;3.40;1.90;;;;;;;11.77;76.75;99396.31;5076729;28;41641;-80
2022/09/20 06:21:56;;;;;;;3.80;2.20;;;;;;;11.76;77.02;99401.69;5094331;28;40029;-79
2022/09/20 06:24:35;;;;;;;4.03;2.03;;;;;;;11.62;77.06;99378.59;5076619;28;41259;-79
2022/09/20 06:27:08;;;;;;;3.30;1.97;;;;;;;11.74;77.19;99399.13;5076621;28;42863;-79
2022/09/20 06:29:42;;;;;;;3.30;2.20;;;;;;;11.65;77.01;99394.34;5090632;28;42204;-80
2022/09/20 06:32:10;;;;;;;4.53;2.37;;;;;;;11.66;76.81;99406.66;5094569;28;40745;-80
2022/09/20 06:34:39;;;;;;;2.90;2.03;;;;;;;11.72;76.87;99400.16;5076602;28;41953;-79
2022/09/20 06:43:18;;;;;;;5.23;2.40;;;;;;;12.03;76.44;99399.22;5076739;28;39881;-79
2022/09/20 06:45:46;;;;;;;6.07;2.90;;;;;;;12.11;76.52;99397.84;5094074;28;41516;-79
2022/09/20 06:48:14;;;;;;;3.97;2.33;;;;;;;12.30;76.08;99407.34;5076279;28;43601;-80
2022/09/20 06:50:44;;;;;;;6.50;2.70;;;;;;;12.44;76.07;99405.56;5076220;28;43299;-79
2022/09/20 06:53:17;;;;;;;4.30;2.70;;;;;;;12.54;75.24;99390.75;5076305;28;38945;-79
2022/09/20 06:55:46;;;;;;;4.60;2.70;;;;;;;12.98;75.17;99405.72;5076062;28;43019;-79
2022/09/20 06:58:14;;;;;;;3.50;2.50;;;;;;;13.42;73.81;99412.66;5094209;28;43356;-79
2022/09/20 07:00:41;;;;;;;3.40;2.43;;;;;;;14.18;72.24;99420.88;5076016;28;42176;-79
2022/09/20 07:03:11;;;;;;;6.63;2.33;;;;;;;16.63;66.25;99443.81;5075969;28;40120;-79
2022/09/20 07:05:39;;;;;;;3.97;2.27;;;;;;;18.24;61.11;99457.41;5075861;28;41947;-80
2022/09/20 07:08:08;;;;;;;4.27;1.80;;;;;;;17.98;60.45;99456.06;5094058;28;43742;-80
2022/09/20 07:10:36;;;;;;;7.47;2.07;;;;;;;17.11;60.42;99428.38;5093027;28;42451;-79
2022/09/20 07:13:04;;;;;;;5.67;1.60;;;;;;;16.66;61.08;99456.94;5076390;28;39946;-79
2022/09/20 07:15:33;;;;;;;4.40;2.03;;;;;;;16.34;61.80;99431.81;5075518;28;40779;-80
2022/09/20 07:18:01;;;;;;;2.93;1.90;;;;;;;16.12;61.70;99444.13;5094234;28;43780;-80
2022/09/20 07:20:29;;;;;;;3.80;1.47;;;;;;;15.82;61.96;99441.13;5058797;28;43636;-80
2022/09/20 07:22:57;;;;;;;3.70;1.43;;;;;;;15.68;62.93;99443.97;5075791;28;40789;-80
2022/09/20 07:25:26;;;;;;;6.17;1.90;;;;;;;15.55;62.73;99448.50;5075476;28;44178;-80
2022/09/20 07:27:54;;;;;;;6.20;1.60;;;;;;;15.54;63.68;99441.41;5075710;28;43099;-79
2022/09/20 07:30:22;;;;;;;7.03;1.73;;;;;;;15.49;63.20;99444.41;5093451;28;42294;-79
2022/09/20 07:32:50;;;;;;;5.97;2.07;;;;;;;15.45;63.51;99449.13;5075703;28;40617;-80
2022/09/20 07:35:17;;;;;;;4.13;1.50;;;;;;;15.31;63.02;99445.78;5074237;28;42294;-79
2022/09/20 07:37:45;;;;;;;4.43;1.60;;;;;;;14.91;63.22;99400.63;5075092;28;42107;-79
2022/09/20 07:40:13;;;;;;;5.80;1.60;;;;;;;15.04;64.07;99438.78;5074920;28;42520;-79
2022/09/20 07:42:44;;;;;;;6.53;1.80;;;;;;;14.97;62.92;99457.97;5092402;28;40074;-79
2022/09/20 07:45:12;;;;;;;3.77;1.77;;;;;;;14.79;63.49;99445.97;5088998;28;42281;-79
2022/09/20 07:47:43;;;;;;;3.93;1.73;;;;;;;14.64;64.16;99454.06;5075276;28;43006;-78
2022/09/20 07:50:11;;;;;;;5.10;1.60;;;;;;;14.48;63.82;99455.22;5089031;28;42339;-79
2022/09/20 07:52:39;;;;;;;4.07;1.50;;;;;;;14.36;64.37;99456.91;5074861;28;40082;-79
2022/09/20 07:55:07;;;;;;;2.10;1.43;;;;;;;14.31;64.57;99459.03;5092546;28;42450;-80
2022/09/20 07:57:37;;;;;;;4.50;1.27;;;;;;;14.31;64.63;99464.38;5075020;28;43656;-79
2022/09/20 08:00:09;;;;;;;2.33;1.33;;;;;;;14.30;65.04;99452.84;5074722;28;43485;-80
2022/09/20 08:02:40;;;;;;;5.13;1.37;;;;;;;14.41;65.08;99465.47;5075550;28;38898;-79
2022/09/20 08:05:08;;;;;;;6.03;1.50;;;;;;;14.62;64.85;99465.78;5057900;28;41983;-80
2022/09/20 08:07:37;;;;;;;2.20;1.13;;;;;;;14.92;64.67;99465.47;5074495;28;42762;-79
2022/09/20 08:10:06;;;;;;;4.50;1.70;;;;;;;15.22;63.63;99473.09;5074680;28;41410;-80
2022/09/20 08:12:34;;;;;;;2.53;1.30;;;;;;;15.43;63.65;99477.75;5091730;28;39929;-79
2022/09/20 08:15:01;;;;;;;5.20;1.63;;;;;;;15.64;62.83;99480.72;5091793;28;41750;-80
2022/09/20 08:17:31;;;;;;;4.63;1.50;;;;;;;15.73;62.20;99474.69;5074851;28;43542;-79
2022/09/20 08:19:59;;;;;;;5.77;2.10;;;;;;;15.87;61.80;99500.38;5074720;28;42740;-79
2022/09/20 08:22:27;;;;;;;5.37;1.37;;;;;;;15.90;60.56;99502.81;5074632;28;39576;-79
2022/09/20 08:24:55;;;;;;;4.30;1.30;;;;;;;15.87;60.26;99503.03;5074836;28;42571;-80
2022/09/20 08:27:22;;;;;;;4.37;1.67;;;;;;;16.03;60.14;99508.97;5074354;28;44164;-80
2022/09/20 08:29:56;;;;;;;4.37;1.40;;;;;;;16.06;59.58;99507.91;5074825;28;41562;-79
2022/09/20 08:32:24;;;;;;;2.50;1.17;;;;;;;15.99;59.23;99502.13;5074428;28;38975;-80
2022/09/20 08:34:54;;;;;;;2.83;1.23;;;;;;;15.95;59.14;99497.97;5074342;28;42754;-79
2022/09/20 08:37:21;;;;;;;2.80;0.97;;;;;;;16.08;59.00;99503.25;5074092;28;42379;-79
2022/09/20 08:39:49;;;;;;;3.63;1.40;;;;;;;16.12;59.20;99513.63;5074206;28;43979;-80
2022/09/20 08:42:27;;;;;;;2.43;1.37;;;;;;;16.20;59.11;99514.84;5074077;28;39155;-79
2022/09/20 08:44:59;;;;;;;4.27;1.10;;;;;;;16.35;59.67;99505.69;5057770;28;40898;-80
2022/09/20 08:47:29;;;;;;;5.10;1.60;;;;;;;16.48;59.05;99514.47;5092216;28;42670;-80
2022/09/20 08:50:00;;;;;;;2.97;1.30;;;;;;;16.70;59.23;99509.22;5074320;28;41398;-79
2022/09/20 08:52:31;;;;;;;3.50;1.23;;;;;;;16.91;58.22;99512.06;5091341;28;41155;-80
2022/09/20 08:54:58;;;;;;;3.13;1.20;;;;;;;17.13;56.81;99511.22;5074500;28;41433;-80
2022/09/20 08:57:31;;;;;;;3.30;1.00;;;;;;;17.36;56.75;99507.56;5073935;28;41838;-80
2022/09/20 08:59:59;;;;;;;4.93;1.23;;;;;;;17.39;54.07;99528.75;5057346;28;41009;-79
2022/09/20 09:02:31;;;;;;;3.70;1.17;;;;;;;17.39;55.35;99517.19;5074150;28;40133;-80
2022/09/20 09:05:21;;;;;;;5.80;1.33;;;;;;;17.31;55.75;99503.56;5075808;28;40691;-80
2022/09/20 09:07:49;;;;;;;2.97;1.10;;;;;;;17.26;55.40;99519.13;5095848;28;43761;-80
2022/09/20 09:10:17;;;;;;;3.07;1.37;;;;;;;17.08;55.59;99524.09;5094513;28;42272;-80
2022/09/20 09:12:46;;;;;;;2.90;1.27;;;;;;;16.93;56.55;99517.28;5095794;28;40094;-79
2022/09/20 09:15:25;;;;;;;3.70;1.20;;;;;;;16.81;56.81;99506.56;5094362;28;42683;-80
2022/09/20 09:17:53;;;;;;;5.30;1.30;;;;;;;16.60;57.20;99489.47;5077896;28;41626;-79
2022/09/20 09:20:24;;;;;;;1.87;0.97;;;;;;;16.64;57.12;99515.06;5095261;28;43273;-80
2022/09/20 09:23:03;;;;;;;4.07;1.00;;;;;;;16.69;57.55;99490.63;5077426;28;39225;-80
2022/09/20 09:25:33;;;;;;;3.83;1.30;;;;;;;17.07;57.57;99509.88;5092805;28;42821;-80
2022/09/20 09:28:04;;;;;;;4.33;1.30;;;;;;;17.33;56.49;99515.84;5077226;28;43304;-80
2022/09/20 09:30:34;;;;;;;3.70;1.40;;;;;;;17.45;55.76;99505.97;5077278;28;42677;-79
2022/09/20 09:33:26;;;;;;;1.73;1.10;;;;;;;17.74;55.90;99517.03;5077367;28;39486;-80
2022/09/20 09:35:59;;;;;;;1.90;1.00;;;;;;;17.98;55.23;99520.38;5074914;28;42488;-80
2022/09/20 09:38:28;;;;;;;3.27;1.00;;;;;;;18.20;53.89;99525.66;5060202;28;43089;-80
2022/09/20 09:40:58;;;;;;;3.13;1.40;;;;;;;18.30;54.29;99515.88;5076968;28;42134;-80
2022/09/20 09:43:28;;;;;;;4.73;1.23;;;;;;;18.24;53.61;99518.22;5077099;28;39012;-79
2022/09/20 09:46:16;;;;;;;3.00;1.20;;;;;;;18.07;52.80;99530.34;5095348;28;42458;-80
2022/09/20 09:48:48;;;;;;;4.73;1.30;;;;;;;18.01;53.50;99536.22;5090913;28;42802;-79
2022/09/20 09:51:22;;;;;;;2.57;1.10;;;;;;;18.20;53.97;99520.31;5076854;28;42824;-80
2022/09/20 09:53:50;;;;;;;5.23;1.50;;;;;;;18.48;52.82;99524.22;5091899;28;41302;-80
2022/09/20 09:56:34;;;;;;;4.10;1.37;;;;;;;18.73;50.85;99536.44;5076289;28;41033;-80
2022/09/20 09:59:19;;;;;;;2.50;1.23;;;;;;;18.74;49.97;99537.28;5076978;28;41659;-80
2022/09/20 10:01:55;;;;;;;2.27;1.10;;;;;;;18.58;50.98;99486.75;5092745;28;43419;-80
2022/09/20 10:04:31;;;;;;;2.97;1.37;;;;;;;19.00;50.74;99519.78;5073832;28;40726;-80
2022/09/20 10:07:09;;;;;;;5.17;1.50;;;;;;;19.44;51.18;99523.94;5092919;28;41919;-81
2022/09/20 10:09:54;;;;;;;3.73;3.00;;;;;;;20.00;49.41;99536.88;5091819;28;42784;-80
2022/09/20 10:12:35;;;;;;;3.13;1.80;;;;;;;20.56;48.35;99534.38;5093411;28;43263;-80
2022/09/20 10:15:21;;;;;;;3.83;2.03;;;;;;;21.09;46.13;99550.03;5076599;28;39154;-79
2022/09/20 10:18:07;;;;;;;2.70;1.30;;;;;;;21.22;45.75;99547.91;5089956;28;42510;-80
2022/09/20 10:20:52;;;;;;;4.57;2.10;;;;;;;21.32;45.29;99554.09;5092409;28;43745;-80
2022/09/20 10:23:40;;;;;;;4.63;2.77;;;;;;;21.56;45.67;99540.09;5090551;28;42913;-80
2022/09/20 10:26:21;;;;;;;3.00;2.60;;;;;;;22.29;44.48;99522.06;5092844;28;40771;-80
2022/09/20 10:28:59;;;;;;;2.23;1.10;;;;;;;23.61;42.56;99553.50;5091478;28;41699;-80
2022/09/20 10:31:41;;;;;;;3.87;2.67;;;;;;;24.33;39.86;99555.63;5091749;28;42845;-80
2022/09/20 10:34:37;;;;;;;4.00;2.50;;;;;;;24.73;39.24;99564.78;5091141;28;43062;-81
2022/09/20 10:37:14;;;;;;;3.33;1.17;;;;;;;24.59;38.94;99577.16;5058913;28;39408;-79
2022/09/20 10:39:56;;;;;;;2.20;1.20;;;;;;;24.46;38.99;99576.78;5089968;28;42796;-80
2022/09/20 10:45:28;;;;;;;4.17;1.20;;;;;;;23.66;39.20;99556.53;5059186;28;43929;-79
2022/09/20 10:48:06;;;;;;;3.87;0.90;;;;;;;23.51;39.07;99568.97;5076010;28;39566;-79
2022/09/20 10:50:42;;;;;;;2.57;1.30;;;;;;;22.97;39.64;99564.72;5091695;28;41810;-79
2022/09/20 10:53:26;;;;;;;2.03;1.33;;;;;;;22.39;40.78;99538.19;5075989;28;42588;-79
2022/09/20 10:56:07;;;;;;;4.53;1.40;;;;;;;22.76;41.48;99551.53;5075656;28;42430;-80
2022/09/20 10:58:46;;;;;;;3.33;1.50;;;;;;;24.50;38.97;99572.72;5090011;28;41178;-79
2022/09/20 11:01:23;;;;;;;3.67;1.97;;;;;;;25.88;37.39;99564.44;5091310;28;42770;-80
2022/09/20 11:04:13;;;;;;;3.40;1.77;;;;;;;27.16;35.50;99587.41;5058641;28;44474;-80
2022/09/20 11:06:50;;;;;;;2.23;1.20;;;;;;;28.90;32.51;99592.03;5075253;28;43239;-79
2022/09/20 11:09:22;;;;;;;2.30;1.20;;;;;;;31.63;29.81;99621.16;5072400;28;40078;-80
2022/09/20 11:11:59;;;;;;;2.53;1.03;;;;;;;31.31;29.22;99595.50;5092739;28;42442;-80
2022/09/20 11:14:33;;;;;;;2.13;1.10;;;;;;;30.07;29.76;99603.19;5075513;28;42315;-80
2022/09/20 11:17:07;;;;;;;2.83;1.20;;;;;;;29.14;30.36;99603.56;5092897;28;43070;-81
2022/09/20 11:19:47;;;;;;;2.97;1.00;;;;;;;27.67;31.71;99601.19;5089412;28;39575;-80
2022/09/20 11:22:20;;;;;;;2.60;1.07;;;;;;;26.28;33.66;99578.88;5075148;28;42409;-80
2022/09/20 11:24:51;;;;;;;3.10;1.07;;;;;;;25.34;35.87;99569.69;5075333;28;42169;-80
2022/09/20 11:27:25;;;;;;;3.77;1.13;;;;;;;24.63;36.04;99573.06;5074829;28;42664;-80
2022/09/20 11:29:59;;;;;;;2.97;1.20;;;;;;;24.20;36.34;99570.59;5071713;28;40678;-79
2022/09/20 11:32:33;;;;;;;2.67;1.23;;;;;;;25.02;37.88;99562.44;5058468;28;40784;-80
2022/09/20 11:35:06;;;;;;;4.17;1.40;;;;;;;26.68;35.50;99566.88;5090244;28;42474;-82
2022/09/20 11:37:38;;;;;;;1.97;1.10;;;;;;;28.85;32.74;99597.22;5075020;28;41384;-80
2022/09/20 11:40:16;;;;;;;4.17;1.87;;;;;;;31.42;29.33;99614.00;5074800;28;40335;-80
2022/09/20 11:42:46;;;;;;;3.97;1.27;;;;;;;33.75;25.88;99639.06;5076350;28;40767;-80
2022/09/20 11:45:14;;;;;;;2.17;0.90;;;;;;;35.60;24.07;99631.88;5090145;28;43208;-80
2022/09/20 11:47:48;;;;;;;2.57;1.00;;;;;;;36.96;22.86;99615.75;5075022;28;43225;-81
2022/09/20 11:50:45;;;;;;;3.33;1.20;;;;;;;38.28;21.18;99632.50;5090151;28;39727;-80
2022/09/20 11:53:28;;;;;;;4.38;1.30;;;;;;;39.34;20.07;99618.97;5092672;28;41828;-80
2022/09/20 11:56:02;;;;;;;3.58;1.15;;;;;;;40.13;19.66;99610.63;5092561;28;42882;-81
2022/09/20 11:58:32;;;;;;;2.55;1.30;;;;;;;40.87;18.65;99620.63;5074428;28;40946;-80
2022/09/20 12:01:00;;;;;;;4.00;0.90;;;;;;;41.44;17.87;99619.56;5074624;28;39150;-80
2022/09/20 12:03:35;;;;;;;2.85;1.25;;;;;;;42.05;17.06;99622.25;5074392;28;42451;-81
2022/09/20 12:06:05;;;;;;;3.08;1.00;;;;;;;42.29;16.80;99620.50;5057406;28;43201;-81
2022/09/20 12:08:36;;;;;;;2.85;0.90;;;;;;;41.28;17.63;99604.84;5089178;28;42503;-81
2022/09/20 12:11:09;;;;;;;2.13;1.10;;;;;;;41.49;17.33;99600.09;5075233;28;39197;-81
2022/09/20 12:13:41;;;;;;;1.85;1.00;;;;;;;40.63;17.76;99600.84;5058031;28;40634;-80
2022/09/20 12:16:14;;;;;;;3.30;1.30;;;;;;;39.69;17.60;99598.19;5074471;28;45051;-82
2022/09/20 12:19:06;;;;;;;1.73;1.00;;;;;;;40.66;17.48;99591.97;5089517;28;42408;-80
2022/09/20 12:22:07;;;;;;;2.70;0.82;;;;;;;41.78;17.20;99592.00;5074419;28;38949;-80
2022/09/20 12:24:38;;;;;;;1.85;1.23;;;;;;;42.84;15.96;99594.34;5089657;28;41648;-81
2022/09/20 12:27:22;;;;;;;1.88;1.00;;;;;;;43.62;15.67;99594.25;5091350;28;42526;-81
2022/09/20 12:30:06;;;;;;;1.15;1.05;;;;;;;43.10;15.41;99592.19;5074382;28;41791;-79
2022/09/20 12:32:56;;;;;;;2.55;1.08;;;;;;;40.51;17.48;99587.22;5074460;28;39512;-79
2022/09/20 12:36:13;;;;;;;1.63;0.80;;;;;;;37.75;19.86;99577.81;5074060;28;41011;-80